17:51
Airports
History
Links
Donate
Help keep this website running!
PayPal
Bitcoin
This page is community maintained. The information is intended for PC simulator navigation or reference.
Always use approved charts for navigation.
ZSCN
CHANGBEI INTL
CHANGBEI INTL (ZSCN)
Nanchang, Jiangxi, China (330100)
(C)
Lat/Lng:28° 51' 54" N / 115° 54' 0" E
28.865 / 115.900001
Elevation:143'ft / 44mMSL
ID / ICAO:ZSCN
Runways:1
Longest:03-21
Concrete 2,800m / 9,187ft
Controlled:Yes
METAR11:00 GMT 2015-02-22
Altimeter: 30.09
Visibility: 6.2 statute miles
Wind: 1.9 knots (from 350°)
Temp: 17°c / 63°f
Humidity: 77.3%

METAR: ZSCN 221100Z 35001MPS CAVOK 17/13 Q1019 NOSIG

(Powered by phpweather)
Airport Radio Frequencies
ATIS: 128.4
Ground: 121.7
Tower: 118.65, 130
Nearby VORs <50NM
Nearby NDBs
Runway 03 / 21
Dimensions:2800.3 x 45.1m 9187' x 148'ft
Surface:Concrete
Edge Lights:High intensity
Runway 03 [A]Runway 21 [B]
Heading:022°TH 202°TH
Lat:
Lng:
28° 51' 12.14"N
115° 53' 39.82"E
28° 52' 35.86"N
115° 54' 20.19"E
ALS:RAIL
TDZ:Yes, lighted
User Notes and Comments
28° 51' 54" N / 115° 54' 0" E
Distance To
Airport ID:
Nearby Airports
(C) TIANHE 166.9 NM
ZHHH ( WX ) NW 322°
(C) HUANGHUA 169.3 NM
ZGHA WSW 253°
(C) LUOGANG 218.0 NM
ZSOF ( WX ) NNE 22°
(C) LUKOU 265.9 NM
ZSNJ ( WX ) NE 41°
(C) XIAOSHAN 288.4 NM
ZSHC ( WX ) ENE 70°
(C) CHANGLE 307.0 NM
ZSFZ ( WX ) SE 131°
(C) Wenzhou 308.1 NM
ZSWZ ESE 102°
VFR Chart
Flight Planning at SkyVector.com